sensor_id;sensor_type;location;lat;lon;timestamp;temperature;humidity
26655;DHT22;14278;50.784;4.630;2023-04-06T00:01:11;6.30;99.90
26655;DHT22;14278;50.784;4.630;2023-04-06T00:03:37;6.20;99.90
26655;DHT22;14278;50.784;4.630;2023-04-06T00:06:03;6.50;99.90
26655;DHT22;14278;50.784;4.630;2023-04-06T00:08:30;6.50;99.90
26655;DHT22;14278;50.784;4.630;2023-04-06T00:10:56;6.00;99.90
26655;DHT22;14278;50.784;4.630;2023-04-06T00:13:22;6.00;99.90
26655;DHT22;14278;50.784;4.630;2023-04-06T00:15:48;6.00;99.90
26655;DHT22;14278;50.784;4.630;2023-04-06T00:18:14;5.90;99.90
26655;DHT22;14278;50.784;4.630;2023-04-06T00:20:40;6.10;99.90
26655;DHT22;14278;50.784;4.630;2023-04-06T00:23:06;6.10;99.90
26655;DHT22;14278;50.784;4.630;2023-04-06T00:25:33;6.40;99.90
26655;DHT22;14278;50.784;4.630;2023-04-06T00:27:59;6.30;99.90
26655;DHT22;14278;50.784;4.630;2023-04-06T00:30:25;6.20;99.90
26655;DHT22;14278;50.784;4.630;2023-04-06T00:32:52;5.90;99.90
26655;DHT22;14278;50.784;4.630;2023-04-06T00:35:17;5.60;99.90
26655;DHT22;14278;50.784;4.630;2023-04-06T00:37:46;5.80;99.90
26655;DHT22;14278;50.784;4.630;2023-04-06T00:40:13;5.90;99.90
26655;DHT22;14278;50.784;4.630;2023-04-06T00:42:40;6.00;99.90
26655;DHT22;14278;50.784;4.630;2023-04-06T00:45:07;6.30;99.90
26655;DHT22;14278;50.784;4.630;2023-04-06T00:47:33;6.40;99.90
26655;DHT22;14278;50.784;4.630;2023-04-06T00:49:59;6.40;99.90
26655;DHT22;14278;50.784;4.630;2023-04-06T00:52:25;6.40;99.90
26655;DHT22;14278;50.784;4.630;2023-04-06T00:54:51;6.60;99.90
26655;DHT22;14278;50.784;4.630;2023-04-06T00:57:18;6.80;99.90
26655;DHT22;14278;50.784;4.630;2023-04-06T00:59:44;6.90;99.90
26655;DHT22;14278;50.784;4.630;2023-04-06T01:02:10;7.00;99.90
26655;DHT22;14278;50.784;4.630;2023-04-06T01:04:40;7.00;99.90
26655;DHT22;14278;50.784;4.630;2023-04-06T01:07:06;7.00;99.90
26655;DHT22;14278;50.784;4.630;2023-04-06T01:09:32;7.00;99.90
26655;DHT22;14278;50.784;4.630;2023-04-06T01:11:58;7.10;99.90
26655;DHT22;14278;50.784;4.630;2023-04-06T01:14:25;7.10;99.90
26655;DHT22;14278;50.784;4.630;2023-04-06T01:16:52;7.00;99.90
26655;DHT22;14278;50.784;4.630;2023-04-06T01:19:17;7.20;99.90
26655;DHT22;14278;50.784;4.630;2023-04-06T01:21:47;7.20;99.90
26655;DHT22;14278;50.784;4.630;2023-04-06T01:24:14;7.00;99.90
26655;DHT22;14278;50.784;4.630;2023-04-06T01:26:40;7.20;99.90
26655;DHT22;14278;50.784;4.630;2023-04-06T01:29:07;7.20;99.90
26655;DHT22;14278;50.784;4.630;2023-04-06T01:31:35;7.00;99.90
26655;DHT22;14278;50.784;4.630;2023-04-06T01:34:01;7.10;99.90
26655;DHT22;14278;50.784;4.630;2023-04-06T01:36:27;7.00;99.90
26655;DHT22;14278;50.784;4.630;2023-04-06T01:38:53;7.20;99.90
26655;DHT22;14278;50.784;4.630;2023-04-06T01:41:20;7.40;99.90
26655;DHT22;14278;50.784;4.630;2023-04-06T01:43:47;7.40;99.90
26655;DHT22;14278;50.784;4.630;2023-04-06T01:46:13;7.00;99.90
26655;DHT22;14278;50.784;4.630;2023-04-06T01:48:39;6.80;99.90
26655;DHT22;14278;50.784;4.630;2023-04-06T01:51:05;7.10;99.90
26655;DHT22;14278;50.784;4.630;2023-04-06T01:53:32;7.30;99.90
26655;DHT22;14278;50.784;4.630;2023-04-06T01:55:58;7.40;99.90
26655;DHT22;14278;50.784;4.630;2023-04-06T01:58:29;7.50;99.90
26655;DHT22;14278;50.784;4.630;2023-04-06T02:00:55;7.50;99.90
26655;DHT22;14278;50.784;4.630;2023-04-06T02:03:21;7.40;99.90
26655;DHT22;14278;50.784;4.630;2023-04-06T02:05:47;7.40;99.90
26655;DHT22;14278;50.784;4.630;2023-04-06T02:08:13;7.20;99.90
26655;DHT22;14278;50.784;4.630;2023-04-06T02:10:39;7.40;99.90
26655;DHT22;14278;50.784;4.630;2023-04-06T02:13:05;7.40;99.90
26655;DHT22;14278;50.784;4.630;2023-04-06T02:15:31;7.40;99.90
26655;DHT22;14278;50.784;4.630;2023-04-06T02:17:58;7.20;99.90
26655;DHT22;14278;50.784;4.630;2023-04-06T02:20:24;7.10;99.90
26655;DHT22;14278;50.784;4.630;2023-04-06T02:22:51;6.90;99.90
26655;DHT22;14278;50.784;4.630;2023-04-06T02:25:16;6.70;99.90
26655;DHT22;14278;50.784;4.630;2023-04-06T02:27:42;6.40;99.90
26655;DHT22;14278;50.784;4.630;2023-04-06T02:30:12;6.30;99.90
26655;DHT22;14278;50.784;4.630;2023-04-06T02:32:38;6.60;99.90
26655;DHT22;14278;50.784;4.630;2023-04-06T02:35:05;7.00;99.90
26655;DHT22;14278;50.784;4.630;2023-04-06T02:37:31;7.30;99.90
26655;DHT22;14278;50.784;4.630;2023-04-06T02:39:56;7.10;99.90
26655;DHT22;14278;50.784;4.630;2023-04-06T02:42:23;7.10;99.90
26655;DHT22;14278;50.784;4.630;2023-04-06T02:44:48;7.00;99.90
26655;DHT22;14278;50.784;4.630;2023-04-06T02:47:15;6.60;99.90
26655;DHT22;14278;50.784;4.630;2023-04-06T02:49:41;6.40;99.90
26655;DHT22;14278;50.784;4.630;2023-04-06T02:52:06;6.50;99.90
26655;DHT22;14278;50.784;4.630;2023-04-06T02:54:33;6.40;99.90
26655;DHT22;14278;50.784;4.630;2023-04-06T02:56:59;6.70;99.90
26655;DHT22;14278;50.784;4.630;2023-04-06T02:59:25;6.80;99.90
26655;DHT22;14278;50.784;4.630;2023-04-06T03:01:51;6.90;99.90
26655;DHT22;14278;50.784;4.630;2023-04-06T03:04:17;6.90;99.90
26655;DHT22;14278;50.784;4.630;2023-04-06T03:06:43;6.80;99.90
26655;DHT22;14278;50.784;4.630;2023-04-06T03:09:09;6.60;99.90
26655;DHT22;14278;50.784;4.630;2023-04-06T03:11:36;6.90;99.90
26655;DHT22;14278;50.784;4.630;2023-04-06T03:14:02;7.00;99.90
26655;DHT22;14278;50.784;4.630;2023-04-06T03:16:27;6.70;99.90
26655;DHT22;14278;50.784;4.630;2023-04-06T03:18:54;6.50;99.90
26655;DHT22;14278;50.784;4.630;2023-04-06T03:21:19;6.90;99.90
26655;DHT22;14278;50.784;4.630;2023-04-06T03:23:45;6.90;99.90
26655;DHT22;14278;50.784;4.630;2023-04-06T03:26:11;6.90;99.90
26655;DHT22;14278;50.784;4.630;2023-04-06T03:28:37;6.90;99.90
26655;DHT22;14278;50.784;4.630;2023-04-06T03:31:03;6.90;99.90
26655;DHT22;14278;50.784;4.630;2023-04-06T03:33:29;6.90;99.90
26655;DHT22;14278;50.784;4.630;2023-04-06T03:35:56;7.10;99.90
26655;DHT22;14278;50.784;4.630;2023-04-06T03:38:24;7.00;99.90
26655;DHT22;14278;50.784;4.630;2023-04-06T03:40:50;7.00;99.90
26655;DHT22;14278;50.784;4.630;2023-04-06T03:43:16;6.90;99.90
26655;DHT22;14278;50.784;4.630;2023-04-06T03:45:41;6.90;99.90
26655;DHT22;14278;50.784;4.630;2023-04-06T03:48:08;7.10;99.90
26655;DHT22;14278;50.784;4.630;2023-04-06T03:50:34;7.10;99.90
26655;DHT22;14278;50.784;4.630;2023-04-06T03:52:59;6.90;99.90
26655;DHT22;14278;50.784;4.630;2023-04-06T03:55:28;7.00;99.90
26655;DHT22;14278;50.784;4.630;2023-04-06T03:57:54;6.90;99.90
26655;DHT22;14278;50.784;4.630;2023-04-06T04:00:21;7.20;99.90
26655;DHT22;14278;50.784;4.630;2023-04-06T04:02:46;7.10;99.90
26655;DHT22;14278;50.784;4.630;2023-04-06T04:05:12;7.10;99.90
26655;DHT22;14278;50.784;4.630;2023-04-06T04:07:39;7.20;99.90
26655;DHT22;14278;50.784;4.630;2023-04-06T04:10:05;7.30;99.90
26655;DHT22;14278;50.784;4.630;2023-04-06T04:12:34;7.30;99.90
26655;DHT22;14278;50.784;4.630;2023-04-06T04:15:00;7.30;99.90
26655;DHT22;14278;50.784;4.630;2023-04-06T04:17:26;7.30;99.90
26655;DHT22;14278;50.784;4.630;2023-04-06T04:19:52;7.20;99.90
26655;DHT22;14278;50.784;4.630;2023-04-06T04:22:18;7.40;99.90
26655;DHT22;14278;50.784;4.630;2023-04-06T04:24:44;7.40;99.90
26655;DHT22;14278;50.784;4.630;2023-04-06T04:27:10;7.30;99.90
26655;DHT22;14278;50.784;4.630;2023-04-06T04:29:38;7.30;99.90
26655;DHT22;14278;50.784;4.630;2023-04-06T04:32:05;7.30;99.90
26655;DHT22;14278;50.784;4.630;2023-04-06T04:34:30;7.30;99.90
26655;DHT22;14278;50.784;4.630;2023-04-06T04:36:57;7.30;99.90
26655;DHT22;14278;50.784;4.630;2023-04-06T04:39:23;7.20;99.90
26655;DHT22;14278;50.784;4.630;2023-04-06T04:41:49;7.30;99.90
26655;DHT22;14278;50.784;4.630;2023-04-06T04:44:15;7.20;99.90
26655;DHT22;14278;50.784;4.630;2023-04-06T04:46:41;7.10;99.90
26655;DHT22;14278;50.784;4.630;2023-04-06T04:49:07;7.00;99.90
26655;DHT22;14278;50.784;4.630;2023-04-06T04:51:32;6.90;99.90
26655;DHT22;14278;50.784;4.630;2023-04-06T04:53:59;6.90;99.90
26655;DHT22;14278;50.784;4.630;2023-04-06T04:56:25;6.60;99.90
26655;DHT22;14278;50.784;4.630;2023-04-06T04:58:52;6.60;99.90
26655;DHT22;14278;50.784;4.630;2023-04-06T05:01:19;6.30;99.90
26655;DHT22;14278;50.784;4.630;2023-04-06T05:03:45;6.20;99.90
26655;DHT22;14278;50.784;4.630;2023-04-06T05:06:14;6.30;99.90
26655;DHT22;14278;50.784;4.630;2023-04-06T05:08:41;6.30;99.90
26655;DHT22;14278;50.784;4.630;2023-04-06T05:11:07;6.80;99.90
26655;DHT22;14278;50.784;4.630;2023-04-06T05:13:41;7.10;99.90
26655;DHT22;14278;50.784;4.630;2023-04-06T05:16:14;7.30;99.90
26655;DHT22;14278;50.784;4.630;2023-04-06T05:18:43;7.60;99.90
26655;DHT22;14278;50.784;4.630;2023-04-06T05:21:10;7.70;99.90
26655;DHT22;14278;50.784;4.630;2023-04-06T05:23:38;7.70;99.90
26655;DHT22;14278;50.784;4.630;2023-04-06T05:26:04;7.20;99.90
26655;DHT22;14278;50.784;4.630;2023-04-06T05:28:30;7.20;99.90
26655;DHT22;14278;50.784;4.630;2023-04-06T05:30:56;7.00;99.90
26655;DHT22;14278;50.784;4.630;2023-04-06T05:33:23;7.40;99.90
26655;DHT22;14278;50.784;4.630;2023-04-06T05:35:49;7.70;99.90
26655;DHT22;14278;50.784;4.630;2023-04-06T05:38:16;7.80;99.90
26655;DHT22;14278;50.784;4.630;2023-04-06T05:40:42;7.80;99.90
26655;DHT22;14278;50.784;4.630;2023-04-06T05:43:08;8.00;99.90
26655;DHT22;14278;50.784;4.630;2023-04-06T05:45:34;7.90;99.90
26655;DHT22;14278;50.784;4.630;2023-04-06T05:48:01;7.70;99.90
26655;DHT22;14278;50.784;4.630;2023-04-06T05:50:28;7.70;99.90
26655;DHT22;14278;50.784;4.630;2023-04-06T05:52:54;7.50;99.90
26655;DHT22;14278;50.784;4.630;2023-04-06T05:55:20;7.60;99.90
26655;DHT22;14278;50.784;4.630;2023-04-06T05:57:46;7.50;99.90
26655;DHT22;14278;50.784;4.630;2023-04-06T06:00:15;7.30;99.90
26655;DHT22;14278;50.784;4.630;2023-04-06T06:02:41;7.30;99.90
26655;DHT22;14278;50.784;4.630;2023-04-06T06:05:08;8.00;99.90
26655;DHT22;14278;50.784;4.630;2023-04-06T06:07:35;8.00;99.90
26655;DHT22;14278;50.784;4.630;2023-04-06T06:10:01;8.00;99.90
26655;DHT22;14278;50.784;4.630;2023-04-06T06:12:27;8.10;99.90
26655;DHT22;14278;50.784;4.630;2023-04-06T06:14:53;8.40;99.90
26655;DHT22;14278;50.784;4.630;2023-04-06T06:17:19;8.60;99.90
26655;DHT22;14278;50.784;4.630;2023-04-06T06:19:45;8.90;99.90
26655;DHT22;14278;50.784;4.630;2023-04-06T06:22:12;8.90;99.90
26655;DHT22;14278;50.784;4.630;2023-04-06T06:24:37;8.80;99.90
26655;DHT22;14278;50.784;4.630;2023-04-06T06:27:04;9.00;99.90
26655;DHT22;14278;50.784;4.630;2023-04-06T06:29:30;9.00;99.90
26655;DHT22;14278;50.784;4.630;2023-04-06T06:31:55;9.00;99.90
26655;DHT22;14278;50.784;4.630;2023-04-06T06:34:22;8.80;99.90
26655;DHT22;14278;50.784;4.630;2023-04-06T06:36:48;9.00;99.90
26655;DHT22;14278;50.784;4.630;2023-04-06T06:39:17;9.20;99.90
26655;DHT22;14278;50.784;4.630;2023-04-06T06:41:43;9.10;99.90
26655;DHT22;14278;50.784;4.630;2023-04-06T06:44:09;9.20;99.90
26655;DHT22;14278;50.784;4.630;2023-04-06T06:46:35;9.00;99.90
26655;DHT22;14278;50.784;4.630;2023-04-06T06:49:01;9.50;99.90
26655;DHT22;14278;50.784;4.630;2023-04-06T06:51:28;9.50;99.90
26655;DHT22;14278;50.784;4.630;2023-04-06T06:53:54;9.40;99.90
26655;DHT22;14278;50.784;4.630;2023-04-06T06:56:20;9.20;99.90
26655;DHT22;14278;50.784;4.630;2023-04-06T06:58:47;8.80;99.90
26655;DHT22;14278;50.784;4.630;2023-04-06T07:01:13;9.00;99.90
26655;DHT22;14278;50.784;4.630;2023-04-06T07:03:39;9.20;99.90
26655;DHT22;14278;50.784;4.630;2023-04-06T07:06:05;9.20;99.90
26655;DHT22;14278;50.784;4.630;2023-04-06T07:08:31;9.40;99.90
26655;DHT22;14278;50.784;4.630;2023-04-06T07:10:57;9.80;99.90
26655;DHT22;14278;50.784;4.630;2023-04-06T07:13:23;10.00;99.90
26655;DHT22;14278;50.784;4.630;2023-04-06T07:15:50;9.80;99.90
26655;DHT22;14278;50.784;4.630;2023-04-06T07:18:17;9.40;99.90
26655;DHT22;14278;50.784;4.630;2023-04-06T07:20:42;9.60;99.90
26655;DHT22;14278;50.784;4.630;2023-04-06T07:23:08;9.30;99.90
26655;DHT22;14278;50.784;4.630;2023-04-06T07:25:34;9.60;99.90
26655;DHT22;14278;50.784;4.630;2023-04-06T07:28:02;9.70;99.90
26655;DHT22;14278;50.784;4.630;2023-04-06T07:30:28;9.90;99.90
26655;DHT22;14278;50.784;4.630;2023-04-06T07:32:54;10.00;99.90
26655;DHT22;14278;50.784;4.630;2023-04-06T07:35:25;10.00;99.90
26655;DHT22;14278;50.784;4.630;2023-04-06T07:37:52;9.90;99.90
26655;DHT22;14278;50.784;4.630;2023-04-06T07:40:19;10.10;99.90
26655;DHT22;14278;50.784;4.630;2023-04-06T07:42:45;10.00;99.90
26655;DHT22;14278;50.784;4.630;2023-04-06T07:45:11;10.20;99.90
26655;DHT22;14278;50.784;4.630;2023-04-06T07:47:37;10.40;99.90
26655;DHT22;14278;50.784;4.630;2023-04-06T07:50:03;10.40;99.90
26655;DHT22;14278;50.784;4.630;2023-04-06T07:52:30;10.70;99.90
26655;DHT22;14278;50.784;4.630;2023-04-06T07:54:58;10.60;99.90
26655;DHT22;14278;50.784;4.630;2023-04-06T07:57:23;10.60;99.90
26655;DHT22;14278;50.784;4.630;2023-04-06T07:59:49;10.70;99.90
26655;DHT22;14278;50.784;4.630;2023-04-06T08:02:15;10.10;99.90
26655;DHT22;14278;50.784;4.630;2023-04-06T08:04:42;10.20;99.90
26655;DHT22;14278;50.784;4.630;2023-04-06T08:07:08;10.40;99.90
26655;DHT22;14278;50.784;4.630;2023-04-06T08:09:34;10.40;99.90
26655;DHT22;14278;50.784;4.630;2023-04-06T08:12:00;9.70;99.90
26655;DHT22;14278;50.784;4.630;2023-04-06T08:14:26;9.90;99.90
26655;DHT22;14278;50.784;4.630;2023-04-06T08:16:52;9.70;99.90
26655;DHT22;14278;50.784;4.630;2023-04-06T08:19:18;10.10;99.90
26655;DHT22;14278;50.784;4.630;2023-04-06T08:21:45;10.40;99.90
26655;DHT22;14278;50.784;4.630;2023-04-06T08:24:12;10.50;99.90
26655;DHT22;14278;50.784;4.630;2023-04-06T08:26:38;10.50;99.90
26655;DHT22;14278;50.784;4.630;2023-04-06T08:29:04;10.40;99.90
26655;DHT22;14278;50.784;4.630;2023-04-06T08:31:33;10.10;99.90
26655;DHT22;14278;50.784;4.630;2023-04-06T08:33:59;10.30;99.90
26655;DHT22;14278;50.784;4.630;2023-04-06T08:36:25;10.20;99.90
26655;DHT22;14278;50.784;4.630;2023-04-06T08:38:50;10.20;99.90
26655;DHT22;14278;50.784;4.630;2023-04-06T08:41:18;9.90;99.90
26655;DHT22;14278;50.784;4.630;2023-04-06T08:43:46;9.90;99.90
26655;DHT22;14278;50.784;4.630;2023-04-06T08:46:12;10.00;99.90
26655;DHT22;14278;50.784;4.630;2023-04-06T08:48:39;10.00;99.90
26655;DHT22;14278;50.784;4.630;2023-04-06T08:51:05;9.80;99.90
26655;DHT22;14278;50.784;4.630;2023-04-06T08:53:32;9.60;99.90
26655;DHT22;14278;50.784;4.630;2023-04-06T08:55:58;9.50;99.90
26655;DHT22;14278;50.784;4.630;2023-04-06T08:58:27;9.50;99.90
26655;DHT22;14278;50.784;4.630;2023-04-06T09:00:53;9.70;99.90
26655;DHT22;14278;50.784;4.630;2023-04-06T09:03:20;9.70;99.90
26655;DHT22;14278;50.784;4.630;2023-04-06T09:05:47;9.90;99.90
26655;DHT22;14278;50.784;4.630;2023-04-06T09:08:13;9.80;99.90
26655;DHT22;14278;50.784;4.630;2023-04-06T09:10:42;9.70;99.90
26655;DHT22;14278;50.784;4.630;2023-04-06T09:13:09;9.70;99.90
26655;DHT22;14278;50.784;4.630;2023-04-06T09:15:35;9.80;99.90
26655;DHT22;14278;50.784;4.630;2023-04-06T09:18:01;9.60;99.90
26655;DHT22;14278;50.784;4.630;2023-04-06T09:20:27;9.80;99.90
26655;DHT22;14278;50.784;4.630;2023-04-06T09:22:56;9.90;99.90
26655;DHT22;14278;50.784;4.630;2023-04-06T09:25:24;10.00;99.90
26655;DHT22;14278;50.784;4.630;2023-04-06T09:28:00;9.90;99.90
26655;DHT22;14278;50.784;4.630;2023-04-06T09:30:26;10.00;99.90
26655;DHT22;14278;50.784;4.630;2023-04-06T09:32:54;9.90;99.90
26655;DHT22;14278;50.784;4.630;2023-04-06T09:35:21;9.90;99.90
26655;DHT22;14278;50.784;4.630;2023-04-06T09:37:51;10.30;99.90
26655;DHT22;14278;50.784;4.630;2023-04-06T09:40:20;10.40;99.90
26655;DHT22;14278;50.784;4.630;2023-04-06T09:42:49;10.20;99.90
26655;DHT22;14278;50.784;4.630;2023-04-06T09:45:17;10.20;99.90
26655;DHT22;14278;50.784;4.630;2023-04-06T09:47:44;10.00;99.90
26655;DHT22;14278;50.784;4.630;2023-04-06T09:50:12;10.20;99.90
26655;DHT22;14278;50.784;4.630;2023-04-06T09:55:09;9.60;99.90
26655;DHT22;14278;50.784;4.630;2023-04-06T09:58:04;9.50;99.90
26655;DHT22;14278;50.784;4.630;2023-04-06T10:00:33;9.50;99.90
26655;DHT22;14278;50.784;4.630;2023-04-06T10:05:46;9.40;99.90
26655;DHT22;14278;50.784;4.630;2023-04-06T10:08:16;9.30;99.90
26655;DHT22;14278;50.784;4.630;2023-04-06T10:10:43;9.10;99.90
26655;DHT22;14278;50.784;4.630;2023-04-06T10:13:11;9.00;99.90
26655;DHT22;14278;50.784;4.630;2023-04-06T10:15:38;9.00;99.90
26655;DHT22;14278;50.784;4.630;2023-04-06T10:18:05;9.10;99.90
26655;DHT22;14278;50.784;4.630;2023-04-06T10:25:57;9.30;99.90
26655;DHT22;14278;50.784;4.630;2023-04-06T10:28:24;9.30;99.90
26655;DHT22;14278;50.784;4.630;2023-04-06T10:30:57;9.40;99.90
26655;DHT22;14278;50.784;4.630;2023-04-06T10:33:24;9.20;99.90
26655;DHT22;14278;50.784;4.630;2023-04-06T10:35:50;9.30;99.90
26655;DHT22;14278;50.784;4.630;2023-04-06T10:38:16;9.20;99.90
26655;DHT22;14278;50.784;4.630;2023-04-06T10:40:47;9.20;99.90
26655;DHT22;14278;50.784;4.630;2023-04-06T10:43:20;9.20;99.90
26655;DHT22;14278;50.784;4.630;2023-04-06T10:45:57;9.10;99.90
26655;DHT22;14278;50.784;4.630;2023-04-06T10:48:23;9.00;99.90
26655;DHT22;14278;50.784;4.630;2023-04-06T10:50:51;9.00;99.90
26655;DHT22;14278;50.784;4.630;2023-04-06T10:53:25;9.20;99.90
26655;DHT22;14278;50.784;4.630;2023-04-06T10:55:53;9.30;99.90
26655;DHT22;14278;50.784;4.630;2023-04-06T10:58:20;9.30;99.90
26655;DHT22;14278;50.784;4.630;2023-04-06T11:00:47;9.20;99.90
26655;DHT22;14278;50.784;4.630;2023-04-06T11:03:16;9.30;99.90
26655;DHT22;14278;50.784;4.630;2023-04-06T11:05:49;9.20;99.90
26655;DHT22;14278;50.784;4.630;2023-04-06T11:08:31;9.30;99.90
26655;DHT22;14278;50.784;4.630;2023-04-06T11:11:06;9.30;99.90
26655;DHT22;14278;50.784;4.630;2023-04-06T11:13:45;9.40;99.90
26655;DHT22;14278;50.784;4.630;2023-04-06T11:16:15;9.30;99.90
26655;DHT22;14278;50.784;4.630;2023-04-06T11:18:55;9.30;99.90
26655;DHT22;14278;50.784;4.630;2023-04-06T11:21:38;9.40;99.90
26655;DHT22;14278;50.784;4.630;2023-04-06T11:24:18;9.40;99.90
26655;DHT22;14278;50.784;4.630;2023-04-06T11:26:53;9.30;99.90
26655;DHT22;14278;50.784;4.630;2023-04-06T11:29:27;9.10;99.90
26655;DHT22;14278;50.784;4.630;2023-04-06T11:32:02;9.10;99.90
26655;DHT22;14278;50.784;4.630;2023-04-06T11:34:29;9.20;99.90
26655;DHT22;14278;50.784;4.630;2023-04-06T11:37:03;9.20;99.90
26655;DHT22;14278;50.784;4.630;2023-04-06T11:39:32;9.30;99.90
26655;DHT22;14278;50.784;4.630;2023-04-06T11:42:03;9.40;99.90
26655;DHT22;14278;50.784;4.630;2023-04-06T11:44:40;9.50;99.90
26655;DHT22;14278;50.784;4.630;2023-04-06T11:47:10;9.60;99.90
26655;DHT22;14278;50.784;4.630;2023-04-06T11:49:40;9.60;99.90
26655;DHT22;14278;50.784;4.630;2023-04-06T11:52:24;9.60;99.90
26655;DHT22;14278;50.784;4.630;2023-04-06T11:54:51;9.40;99.90
26655;DHT22;14278;50.784;4.630;2023-04-06T11:57:18;9.40;99.90
26655;DHT22;14278;50.784;4.630;2023-04-06T11:59:45;9.20;99.90
26655;DHT22;14278;50.784;4.630;2023-04-06T12:02:11;9.30;99.90
26655;DHT22;14278;50.784;4.630;2023-04-06T12:04:37;9.50;99.90
26655;DHT22;14278;50.784;4.630;2023-04-06T12:07:03;9.70;99.90
26655;DHT22;14278;50.784;4.630;2023-04-06T12:09:30;9.70;99.90
26655;DHT22;14278;50.784;4.630;2023-04-06T12:11:57;9.70;99.90
26655;DHT22;14278;50.784;4.630;2023-04-06T12:14:23;9.80;99.90
26655;DHT22;14278;50.784;4.630;2023-04-06T12:16:49;9.80;99.90
26655;DHT22;14278;50.784;4.630;2023-04-06T12:19:15;9.80;99.90
26655;DHT22;14278;50.784;4.630;2023-04-06T12:21:41;10.10;99.90
26655;DHT22;14278;50.784;4.630;2023-04-06T12:24:08;10.20;99.90
26655;DHT22;14278;50.784;4.630;2023-04-06T12:26:34;10.20;99.90
26655;DHT22;14278;50.784;4.630;2023-04-06T12:29:01;10.20;99.90
26655;DHT22;14278;50.784;4.630;2023-04-06T12:31:33;10.30;99.90
26655;DHT22;14278;50.784;4.630;2023-04-06T12:34:00;10.30;99.90
26655;DHT22;14278;50.784;4.630;2023-04-06T12:36:28;10.30;99.90
26655;DHT22;14278;50.784;4.630;2023-04-06T12:38:53;10.40;99.90
26655;DHT22;14278;50.784;4.630;2023-04-06T12:41:20;10.40;99.90
26655;DHT22;14278;50.784;4.630;2023-04-06T12:43:46;10.20;99.90
26655;DHT22;14278;50.784;4.630;2023-04-06T12:46:12;10.40;99.90
26655;DHT22;14278;50.784;4.630;2023-04-06T12:48:38;10.30;99.90
26655;DHT22;14278;50.784;4.630;2023-04-06T12:51:06;10.60;99.90
26655;DHT22;14278;50.784;4.630;2023-04-06T12:53:33;10.60;99.90
26655;DHT22;14278;50.784;4.630;2023-04-06T12:56:00;10.70;99.90
26655;DHT22;14278;50.784;4.630;2023-04-06T12:58:26;10.50;99.90
26655;DHT22;14278;50.784;4.630;2023-04-06T13:00:54;10.60;99.90
26655;DHT22;14278;50.784;4.630;2023-04-06T13:03:21;10.60;99.90
26655;DHT22;14278;50.784;4.630;2023-04-06T13:05:49;10.30;99.90
26655;DHT22;14278;50.784;4.630;2023-04-06T13:08:15;10.60;99.90
26655;DHT22;14278;50.784;4.630;2023-04-06T13:10:46;10.40;99.90
26655;DHT22;14278;50.784;4.630;2023-04-06T13:13:17;10.20;99.90
26655;DHT22;14278;50.784;4.630;2023-04-06T13:15:44;10.30;99.90
26655;DHT22;14278;50.784;4.630;2023-04-06T13:18:10;10.30;99.90
26655;DHT22;14278;50.784;4.630;2023-04-06T13:20:36;10.10;99.90
26655;DHT22;14278;50.784;4.630;2023-04-06T13:23:02;10.00;99.90
26655;DHT22;14278;50.784;4.630;2023-04-06T13:25:29;9.90;99.90
26655;DHT22;14278;50.784;4.630;2023-04-06T13:27:55;10.00;99.90
26655;DHT22;14278;50.784;4.630;2023-04-06T13:30:22;10.10;99.90
26655;DHT22;14278;50.784;4.630;2023-04-06T13:32:48;9.90;99.90
26655;DHT22;14278;50.784;4.630;2023-04-06T13:35:13;9.90;99.90
26655;DHT22;14278;50.784;4.630;2023-04-06T13:37:40;9.80;99.90
26655;DHT22;14278;50.784;4.630;2023-04-06T13:40:06;9.70;99.90
26655;DHT22;14278;50.784;4.630;2023-04-06T13:42:33;9.80;99.90
26655;DHT22;14278;50.784;4.630;2023-04-06T13:45:00;9.70;99.90
26655;DHT22;14278;50.784;4.630;2023-04-06T13:47:26;9.60;99.90
26655;DHT22;14278;50.784;4.630;2023-04-06T13:49:53;9.80;99.90
26655;DHT22;14278;50.784;4.630;2023-04-06T13:52:20;9.70;99.90
26655;DHT22;14278;50.784;4.630;2023-04-06T13:54:48;9.80;99.90
26655;DHT22;14278;50.784;4.630;2023-04-06T13:57:14;10.00;99.90
26655;DHT22;14278;50.784;4.630;2023-04-06T13:59:40;10.00;99.90
26655;DHT22;14278;50.784;4.630;2023-04-06T14:02:07;10.10;99.90
26655;DHT22;14278;50.784;4.630;2023-04-06T14:04:34;10.10;99.90
26655;DHT22;14278;50.784;4.630;2023-04-06T14:07:01;10.10;99.90
26655;DHT22;14278;50.784;4.630;2023-04-06T14:09:28;10.20;99.90
26655;DHT22;14278;50.784;4.630;2023-04-06T14:11:54;10.30;99.90
26655;DHT22;14278;50.784;4.630;2023-04-06T14:14:21;10.30;99.90
26655;DHT22;14278;50.784;4.630;2023-04-06T14:16:47;10.40;99.90
26655;DHT22;14278;50.784;4.630;2023-04-06T14:19:15;10.60;99.90
26655;DHT22;14278;50.784;4.630;2023-04-06T14:21:47;10.80;99.90
26655;DHT22;14278;50.784;4.630;2023-04-06T14:24:14;10.90;99.90
26655;DHT22;14278;50.784;4.630;2023-04-06T14:26:41;10.60;99.90
26655;DHT22;14278;50.784;4.630;2023-04-06T14:29:08;10.30;99.90
26655;DHT22;14278;50.784;4.630;2023-04-06T14:31:35;10.40;99.90
26655;DHT22;14278;50.784;4.630;2023-04-06T14:34:02;10.50;99.90
26655;DHT22;14278;50.784;4.630;2023-04-06T14:36:32;10.60;99.90
26655;DHT22;14278;50.784;4.630;2023-04-06T14:39:05;10.60;99.90
26655;DHT22;14278;50.784;4.630;2023-04-06T14:41:31;10.60;99.90
26655;DHT22;14278;50.784;4.630;2023-04-06T14:43:58;10.60;99.90
26655;DHT22;14278;50.784;4.630;2023-04-06T14:46:24;10.50;99.90
26655;DHT22;14278;50.784;4.630;2023-04-06T14:48:50;10.50;99.90
26655;DHT22;14278;50.784;4.630;2023-04-06T14:51:17;10.70;99.90
26655;DHT22;14278;50.784;4.630;2023-04-06T14:53:43;10.70;99.90
26655;DHT22;14278;50.784;4.630;2023-04-06T14:56:10;10.70;99.90
26655;DHT22;14278;50.784;4.630;2023-04-06T14:58:36;10.70;99.90
26655;DHT22;14278;50.784;4.630;2023-04-06T15:01:02;10.70;99.90
26655;DHT22;14278;50.784;4.630;2023-04-06T15:03:29;10.70;99.90
26655;DHT22;14278;50.784;4.630;2023-04-06T15:05:56;10.60;99.90
26655;DHT22;14278;50.784;4.630;2023-04-06T15:08:22;10.70;99.90
26655;DHT22;14278;50.784;4.630;2023-04-06T15:10:49;10.70;99.90
26655;DHT22;14278;50.784;4.630;2023-04-06T15:13:15;10.70;99.90
26655;DHT22;14278;50.784;4.630;2023-04-06T15:15:42;10.80;99.90
26655;DHT22;14278;50.784;4.630;2023-04-06T15:18:09;10.90;99.90
26655;DHT22;14278;50.784;4.630;2023-04-06T15:20:35;11.10;99.90
26655;DHT22;14278;50.784;4.630;2023-04-06T15:23:01;11.10;99.90
26655;DHT22;14278;50.784;4.630;2023-04-06T15:25:29;11.10;99.90
26655;DHT22;14278;50.784;4.630;2023-04-06T15:27:55;11.40;99.90
26655;DHT22;14278;50.784;4.630;2023-04-06T15:30:21;11.70;99.90
26655;DHT22;14278;50.784;4.630;2023-04-06T15:33:00;11.70;99.90
26655;DHT22;14278;50.784;4.630;2023-04-06T15:35:27;11.80;99.90
26655;DHT22;14278;50.784;4.630;2023-04-06T15:37:56;11.70;99.90
26655;DHT22;14278;50.784;4.630;2023-04-06T15:40:23;11.60;99.90
26655;DHT22;14278;50.784;4.630;2023-04-06T15:42:49;11.60;99.90
26655;DHT22;14278;50.784;4.630;2023-04-06T15:45:16;11.60;99.90
26655;DHT22;14278;50.784;4.630;2023-04-06T15:47:43;11.60;99.90
26655;DHT22;14278;50.784;4.630;2023-04-06T15:50:09;11.60;99.90
26655;DHT22;14278;50.784;4.630;2023-04-06T15:52:37;11.50;99.90